createdAt,value
2023-04-14T00:02:06.925Z,10.75
2023-04-14T00:04:36.993Z,10.73
2023-04-14T00:07:08.219Z,10.72
2023-04-14T00:09:39.217Z,10.72
2023-04-14T00:12:10.691Z,10.71
2023-04-14T00:14:43.399Z,10.70
2023-04-14T00:17:15.507Z,10.67
2023-04-14T00:19:46.877Z,10.63
2023-04-14T00:22:18.570Z,10.60
2023-04-14T00:24:50.987Z,10.59
2023-04-14T00:27:21.933Z,10.58
2023-04-14T00:29:53.024Z,10.57
2023-04-14T00:32:24.022Z,10.55
2023-04-14T00:35:05.532Z,10.53
2023-04-14T00:37:36.409Z,10.51
2023-04-14T00:40:11.036Z,10.49
2023-04-14T00:42:47.286Z,10.48
2023-04-14T00:45:18.348Z,10.45
2023-04-14T00:47:51.277Z,10.44
2023-04-14T00:50:23.742Z,10.42
2023-04-14T00:52:57.754Z,10.39
2023-04-14T00:55:29.020Z,10.37
2023-04-14T00:58:00.329Z,10.35
2023-04-14T01:00:31.732Z,10.33
2023-04-14T01:03:05.292Z,10.32
2023-04-14T01:05:42.371Z,10.27
2023-04-14T01:08:13.682Z,10.24
2023-04-14T01:10:55.416Z,10.20
2023-04-14T01:13:37.152Z,10.16
2023-04-14T01:16:16.009Z,10.11
2023-04-14T01:18:53.934Z,10.06
2023-04-14T01:21:33.869Z,10.03
2023-04-14T01:24:27.557Z,10.00
2023-04-14T01:27:09.404Z,9.98
2023-04-14T01:29:56.813Z,9.93
2023-04-14T01:32:31.572Z,9.88
2023-04-14T01:35:20.986Z,9.86
2023-04-14T01:45:36.674Z,9.75
2023-04-14T01:48:22.375Z,9.72
2023-04-14T01:50:55.046Z,9.69
2023-04-14T01:53:31.180Z,9.67
2023-04-14T01:56:04.431Z,9.65
2023-04-14T01:58:37.632Z,9.62
2023-04-14T02:01:10.285Z,9.62
2023-04-14T02:03:43.951Z,9.61
2023-04-14T02:06:16.145Z,9.57
2023-04-14T02:08:47.882Z,9.53
2023-04-14T02:11:20.349Z,9.47
2023-04-14T02:13:52.865Z,9.38
2023-04-14T02:16:26.092Z,9.32
2023-04-14T02:18:57.717Z,9.25
2023-04-14T02:21:32.917Z,9.20
2023-04-14T02:24:06.827Z,9.16
2023-04-14T02:26:42.007Z,9.11
2023-04-14T02:29:13.947Z,9.04
2023-04-14T02:31:47.681Z,9.00
2023-04-14T02:34:25.134Z,8.95
2023-04-14T02:36:58.630Z,8.92
2023-04-14T02:39:37.430Z,8.89
2023-04-14T02:42:16.213Z,8.84
2023-04-14T02:44:52.856Z,8.82
2023-04-14T02:47:31.263Z,8.81
2023-04-14T02:50:06.678Z,8.79
2023-04-14T02:52:39.551Z,8.77
2023-04-14T02:55:13.443Z,8.74
2023-04-14T02:57:44.557Z,8.71
2023-04-14T03:00:17.354Z,8.69
2023-04-14T03:02:49.696Z,8.67
2023-04-14T03:05:21.834Z,8.66
2023-04-14T03:07:58.556Z,8.63
2023-04-14T03:10:30.117Z,8.60
2023-04-14T03:13:04.727Z,8.58
2023-04-14T03:15:37.299Z,8.53
2023-04-14T03:21:03.645Z,8.44
2023-04-14T03:23:37.776Z,8.42
2023-04-14T03:26:12.781Z,8.37
2023-04-14T03:28:45.365Z,8.32
2023-04-14T03:31:19.129Z,8.27
2023-04-14T03:33:57.565Z,8.26
2023-04-14T03:36:35.572Z,8.24
2023-04-14T03:39:09.471Z,8.21
2023-04-14T03:41:48.056Z,8.19
2023-04-14T03:44:21.330Z,8.14
2023-04-14T03:46:55.755Z,8.10
2023-04-14T03:49:29.023Z,8.07
2023-04-14T03:52:03.809Z,8.01
2023-04-14T03:54:39.233Z,7.98
2023-04-14T03:57:13.113Z,7.97
2023-04-14T03:59:46.003Z,7.96
2023-04-14T04:02:18.288Z,7.98
2023-04-14T04:04:51.808Z,8.01
2023-04-14T04:07:24.961Z,8.03
2023-04-14T04:09:57.755Z,8.08
2023-04-14T04:12:29.397Z,8.15
2023-04-14T04:15:00.771Z,8.17
2023-04-14T04:17:33.868Z,8.19
2023-04-14T04:20:11.252Z,8.22
2023-04-14T04:22:45.570Z,8.24
2023-04-14T04:25:17.278Z,8.31
2023-04-14T04:27:54.105Z,8.37
2023-04-14T04:30:29.035Z,8.42
2023-04-14T04:33:00.214Z,8.44
2023-04-14T04:35:32.954Z,8.41
2023-04-14T04:38:05.570Z,8.36
2023-04-14T04:40:40.528Z,8.33
2023-04-14T04:43:20.302Z,8.30
2023-04-14T04:46:31.769Z,8.30
2023-04-14T04:49:03.558Z,8.32
2023-04-14T04:51:34.732Z,8.32
2023-04-14T04:54:07.167Z,8.33
2023-04-14T04:56:38.299Z,8.32
2023-04-14T04:59:10.926Z,8.31
2023-04-14T05:01:42.414Z,8.32
2023-04-14T05:04:13.424Z,8.37
2023-04-14T05:06:44.507Z,8.42
2023-04-14T05:09:15.540Z,8.46
2023-04-14T05:11:46.649Z,8.49
2023-04-14T05:14:17.668Z,8.52
2023-04-14T05:16:48.715Z,8.55
2023-04-14T05:19:19.628Z,8.56
2023-04-14T05:21:51.242Z,8.60
2023-04-14T05:24:22.368Z,8.66
2023-04-14T05:27:12.489Z,8.69
2023-04-14T05:29:44.785Z,8.74
2023-04-14T05:32:15.850Z,8.77
2023-04-14T05:34:46.815Z,8.81
2023-04-14T05:37:17.866Z,8.87
2023-04-14T05:39:49.101Z,8.95
2023-04-14T05:42:22.740Z,9.03
2023-04-14T05:44:53.692Z,9.11
2023-04-14T05:47:25.344Z,9.18
2023-04-14T05:49:56.828Z,9.28
2023-04-14T05:52:27.868Z,9.36
2023-04-14T05:54:59.213Z,9.47
2023-04-14T05:57:31.068Z,9.60
2023-04-14T06:00:02.604Z,9.72
2023-04-14T06:02:44.919Z,9.79
2023-04-14T06:05:16.094Z,9.86
2023-04-14T06:07:47.354Z,9.96
2023-04-14T06:10:18.369Z,10.08
2023-04-14T06:12:49.395Z,10.19
2023-04-14T06:15:20.414Z,10.28
2023-04-14T06:17:52.156Z,10.34
2023-04-14T06:20:23.658Z,10.42
2023-04-14T06:22:54.713Z,10.48
2023-04-14T06:25:25.724Z,10.51
2023-04-14T06:27:57.152Z,10.56
2023-04-14T06:30:28.760Z,10.61
2023-04-14T06:33:02.005Z,10.65
2023-04-14T06:35:35.234Z,10.72
2023-04-14T06:38:08.783Z,10.82
2023-04-14T06:40:40.136Z,10.94
2023-04-14T06:43:11.746Z,11.00
2023-04-14T06:45:43.329Z,11.04
2023-04-14T06:48:15.815Z,11.08
2023-04-14T06:50:53.024Z,11.15
2023-04-14T06:53:24.522Z,11.24
2023-04-14T06:56:00.737Z,11.38
2023-04-14T06:58:32.627Z,11.60
2023-04-14T07:01:04.867Z,11.95
2023-04-14T07:03:36.045Z,12.49
2023-04-14T07:06:09.413Z,13.00
2023-04-14T07:08:41.024Z,13.44
2023-04-14T07:11:13.165Z,13.79
2023-04-14T07:13:44.140Z,14.11
2023-04-14T07:16:15.133Z,14.80
2023-04-14T07:18:46.412Z,15.69
2023-04-14T07:21:17.484Z,16.38
2023-04-14T07:23:48.907Z,17.31
2023-04-14T07:26:20.009Z,18.14
2023-04-14T07:28:52.396Z,19.00
2023-04-14T07:31:23.571Z,19.60
2023-04-14T07:33:54.818Z,20.33
2023-04-14T07:36:26.443Z,21.22
2023-04-14T07:38:57.447Z,22.18
2023-04-14T07:41:29.395Z,23.05
2023-04-14T07:44:00.531Z,23.13
2023-04-14T07:46:32.322Z,22.91
2023-04-14T07:50:39.853Z,23.14
2023-04-14T07:53:02.969Z,23.86
2023-04-14T07:55:33.934Z,24.10
2023-04-14T07:58:04.976Z,24.21
2023-04-14T08:00:36.027Z,24.22
2023-04-14T08:03:07.054Z,24.27
2023-04-14T08:05:38.328Z,24.46
2023-04-14T08:08:10.292Z,24.63
2023-04-14T08:10:44.838Z,24.64
2023-04-14T08:13:15.891Z,24.64
2023-04-14T08:15:46.926Z,24.64
2023-04-14T08:18:20.400Z,24.61
2023-04-14T08:20:53.193Z,24.64
2023-04-14T08:23:24.157Z,24.54
2023-04-14T08:25:55.097Z,24.48
2023-04-14T08:28:26.411Z,24.39
2023-04-14T08:30:57.489Z,24.35
2023-04-14T08:33:28.547Z,24.21
2023-04-14T08:36:00.593Z,24.04
2023-04-14T08:38:32.204Z,23.80
2023-04-14T08:41:06.459Z,23.61
2023-04-14T08:43:37.489Z,23.48
2023-04-14T08:46:10.622Z,23.42
2023-04-14T08:48:51.594Z,23.42
2023-04-14T08:51:35.320Z,23.50
2023-04-14T08:54:10.589Z,23.55
2023-04-14T08:56:43.676Z,23.53
2023-04-14T08:59:14.808Z,23.46
2023-04-14T09:02:41.794Z,23.29
2023-04-14T09:05:32.555Z,22.99
2023-04-14T09:08:06.682Z,22.93
2023-04-14T09:10:38.131Z,22.80
2023-04-14T09:13:12.824Z,22.64
2023-04-14T09:15:45.506Z,22.43
2023-04-14T09:18:20.929Z,22.41
2023-04-14T09:21:50.923Z,22.33
2023-04-14T09:23:45.090Z,22.38
2023-04-14T09:26:16.396Z,22.42
2023-04-14T09:28:47.542Z,22.14
2023-04-14T09:31:19.870Z,21.87
2023-04-14T09:33:53.184Z,21.71
2023-04-14T09:36:25.987Z,21.61
2023-04-14T09:39:00.614Z,21.60
2023-04-14T09:46:26.962Z,21.34
2023-04-14T09:49:31.293Z,20.97
2023-04-14T09:52:06.975Z,20.78
2023-04-14T10:02:05.770Z,20.32
2023-04-14T10:04:37.598Z,20.16
2023-04-14T10:07:48.949Z,20.15
2023-04-14T10:10:54.205Z,20.02
2023-04-14T10:17:40.496Z,19.62
2023-04-14T10:21:14.885Z,19.61
2023-04-14T10:23:47.332Z,19.45
2023-04-14T10:26:36.805Z,19.37
2023-04-14T10:30:05.784Z,19.40
2023-04-14T10:53:56.897Z,19.44
2023-04-14T10:56:25.754Z,19.41
2023-04-14T10:58:58.487Z,19.29
2023-04-14T11:01:31.109Z,19.30
2023-04-14T11:04:16.719Z,19.31
2023-04-14T11:07:09.607Z,19.32
2023-04-14T11:09:38.501Z,19.18
2023-04-14T11:12:24.348Z,19.00
2023-04-14T11:15:01.506Z,18.89
2023-04-14T11:17:32.522Z,18.83
2023-04-14T11:20:10.480Z,18.90
2023-04-14T11:22:40.907Z,18.94
2023-04-14T11:25:13.041Z,18.89
2023-04-14T11:27:42.623Z,18.81
2023-04-14T11:30:15.851Z,18.69
2023-04-14T11:32:49.888Z,18.54
2023-04-14T11:35:18.847Z,18.34
2023-04-14T11:37:47.889Z,18.20
2023-04-14T11:40:16.774Z,18.19
2023-04-14T11:43:27.928Z,18.25
2023-04-14T11:45:57.729Z,18.29
2023-04-14T11:52:20.557Z,18.35
2023-04-14T11:54:49.046Z,18.33
2023-04-14T12:01:15.240Z,18.02
2023-04-14T12:03:44.374Z,17.91
2023-04-14T12:07:01.237Z,17.77
2023-04-14T12:09:09.575Z,17.62
2023-04-14T12:11:37.890Z,17.55
2023-04-14T12:14:06.389Z,17.51
2023-04-14T12:16:35.122Z,17.48
2023-04-14T12:19:04.353Z,17.46
2023-04-14T12:21:32.946Z,17.40
2023-04-14T12:24:01.887Z,17.37
2023-04-14T12:26:32.146Z,17.43
2023-04-14T12:29:01.159Z,17.46
2023-04-14T12:31:54.236Z,17.43
2023-04-14T12:34:26.416Z,17.37
2023-04-14T12:36:55.348Z,17.40
2023-04-14T12:39:26.866Z,17.41
2023-04-14T12:41:59.094Z,17.39
2023-04-14T12:44:27.570Z,17.30
2023-04-14T12:47:50.528Z,17.22
2023-04-14T12:50:29.914Z,17.11
2023-04-14T12:57:14.786Z,17.02
2023-04-14T12:59:43.240Z,17.04
2023-04-14T13:02:12.260Z,17.07
2023-04-14T13:04:40.665Z,17.13
2023-04-14T13:07:08.911Z,17.20
2023-04-14T13:12:58.878Z,17.19
2023-04-14T13:16:12.157Z,17.12
2023-04-14T13:18:17.597Z,17.00
2023-04-14T13:20:53.690Z,16.90
2023-04-14T13:23:22.303Z,16.78
2023-04-14T13:25:50.888Z,16.64
2023-04-14T13:28:19.130Z,16.52
2023-04-14T13:30:48.180Z,16.43
2023-04-14T13:33:16.733Z,16.39
2023-04-14T13:35:45.286Z,16.36
2023-04-14T13:38:13.651Z,16.38
2023-04-14T13:45:15.789Z,16.41
2023-04-14T13:47:54.651Z,16.41
2023-04-14T13:53:08.796Z,16.39
2023-04-14T13:55:37.222Z,16.39
2023-04-14T13:59:18.479Z,16.37
2023-04-14T14:02:23.235Z,16.35
2023-04-14T14:05:11.676Z,16.39
2023-04-14T14:07:39.954Z,16.49
2023-04-14T14:10:10.184Z,16.59
2023-04-14T14:12:52.751Z,16.66
2023-04-14T14:15:46.033Z,16.64
2023-04-14T14:18:17.509Z,16.59
2023-04-14T14:20:46.509Z,16.52
2023-04-14T14:23:15.714Z,16.46
2023-04-14T14:25:44.889Z,16.44
2023-04-14T14:28:13.356Z,16.44
2023-04-14T14:30:41.574Z,16.48
2023-04-14T14:33:21.891Z,16.57
2023-04-14T14:35:51.962Z,16.64
2023-04-14T14:38:20.346Z,16.68
2023-04-14T14:40:48.536Z,16.69
2023-04-14T14:43:59.223Z,16.65
2023-04-14T14:46:28.504Z,16.55
2023-04-14T14:48:57.742Z,16.47
2023-04-14T14:51:27.151Z,16.40
2023-04-14T14:54:07.043Z,16.39
2023-04-14T14:56:53.057Z,16.42
2023-04-14T15:00:08.054Z,16.41
2023-04-14T15:02:51.033Z,16.41
2023-04-14T15:05:19.636Z,16.37
2023-04-14T15:07:47.889Z,16.31
2023-04-14T15:10:16.393Z,16.22
2023-04-14T15:13:01.670Z,16.13
2023-04-14T15:15:29.882Z,16.05
2023-04-14T15:17:58.620Z,16.03
2023-04-14T15:20:27.187Z,16.00
2023-04-14T15:22:56.371Z,15.98
2023-04-14T15:25:25.028Z,15.96
2023-04-14T15:27:53.220Z,15.97
2023-04-14T15:30:23.265Z,15.99
2023-04-14T15:32:51.893Z,15.99
2023-04-14T15:35:20.410Z,15.95
2023-04-14T15:38:00.975Z,15.91
2023-04-14T15:40:29.410Z,15.87
2023-04-14T15:43:03.532Z,15.80
2023-04-14T15:45:31.788Z,15.73
2023-04-14T15:48:00.058Z,15.70
2023-04-14T15:50:44.413Z,15.70
2023-04-14T15:53:45.762Z,15.69
2023-04-14T15:56:15.479Z,15.63
2023-04-14T15:58:43.672Z,15.56
2023-04-14T16:01:11.822Z,15.49
2023-04-14T16:03:40.857Z,15.41
2023-04-14T16:06:10.087Z,15.36
2023-04-14T16:08:38.403Z,15.29
2023-04-14T16:11:07.267Z,15.24
2023-04-14T16:13:35.403Z,15.17
2023-04-14T16:16:03.683Z,15.10
2023-04-14T16:18:31.907Z,15.08
2023-04-14T16:21:00.200Z,15.04
2023-04-14T16:23:28.983Z,14.96
2023-04-14T16:25:57.417Z,14.89
2023-04-14T16:28:26.436Z,14.80
2023-04-14T16:30:55.189Z,14.72
2023-04-14T16:33:23.920Z,14.68
2023-04-14T16:35:52.124Z,14.63
2023-04-14T16:38:20.590Z,14.57
2023-04-14T16:40:56.723Z,14.52
2023-04-14T16:43:27.431Z,14.44
2023-04-14T16:46:01.807Z,14.36
2023-04-14T16:48:30.718Z,14.29
2023-04-14T16:51:04.286Z,14.22
2023-04-14T16:53:32.432Z,14.16
2023-04-14T16:56:04.525Z,14.09
2023-04-14T16:58:32.733Z,14.03
2023-04-14T17:01:01.213Z,13.99
2023-04-14T17:03:30.453Z,13.95
2023-04-14T17:05:58.789Z,13.91
2023-04-14T17:08:30.556Z,13.83
2023-04-14T17:11:01.482Z,13.75
2023-04-14T17:13:30.169Z,13.65
2023-04-14T17:16:08.279Z,13.57
2023-04-14T17:18:38.044Z,13.52
2023-04-14T17:21:06.764Z,13.48
2023-04-14T17:23:36.955Z,13.43
2023-04-14T17:26:05.880Z,13.38
2023-04-14T17:28:35.161Z,13.32
2023-04-14T17:31:41.856Z,13.26
2023-04-14T17:34:39.775Z,13.17
2023-04-14T17:37:08.772Z,13.08
2023-04-14T17:43:19.194Z,12.93
2023-04-14T17:45:58.840Z,12.83
2023-04-14T17:48:31.234Z,12.77
2023-04-14T18:09:50.998Z,12.76
2023-04-14T18:12:25.382Z,12.69
2023-04-14T18:19:48.316Z,12.43
2023-04-14T18:22:22.974Z,12.35
2023-04-14T18:25:09.342Z,12.27
2023-04-14T18:39:48.324Z,11.94
2023-04-14T18:46:41.471Z,11.91
2023-04-14T18:56:53.163Z,11.84
2023-04-14T18:59:29.689Z,11.80
2023-04-14T19:02:00.864Z,11.78
2023-04-14T19:04:36.357Z,11.75
2023-04-14T19:07:08.705Z,11.71
2023-04-14T19:09:42.184Z,11.69
2023-04-14T19:12:25.527Z,11.67
2023-04-14T19:14:59.176Z,11.64
2023-04-14T19:17:36.267Z,11.64
2023-04-14T19:20:11.961Z,11.63
2023-04-14T19:22:42.994Z,11.62
2023-04-14T19:26:20.285Z,11.61
2023-04-14T19:28:53.063Z,11.60
2023-04-14T19:31:27.644Z,11.58
2023-04-14T19:33:58.808Z,11.58
2023-04-14T19:36:32.431Z,11.57
2023-04-14T19:39:04.128Z,11.58
2023-04-14T19:45:32.423Z,11.59
2023-04-14T19:48:10.095Z,11.58
2023-04-14T19:50:52.193Z,11.54
2023-04-14T19:53:24.510Z,11.53
2023-04-14T19:55:58.176Z,11.50
2023-04-14T19:58:33.338Z,11.48
2023-04-14T20:01:07.268Z,11.45
2023-04-14T20:03:38.697Z,11.40
2023-04-14T20:06:29.724Z,11.36
2023-04-14T20:09:02.161Z,11.32
2023-04-14T20:11:37.261Z,11.28
2023-04-14T20:14:08.468Z,11.25
2023-04-14T20:16:40.857Z,11.22
2023-04-14T20:19:13.907Z,11.18
2023-04-14T20:21:45.034Z,11.15
2023-04-14T20:24:17.860Z,11.13
2023-04-14T20:26:49.009Z,11.10
2023-04-14T20:29:20.236Z,11.07
2023-04-14T20:31:51.583Z,11.05
2023-04-14T20:34:23.239Z,11.04
2023-04-14T20:36:57.326Z,11.03
2023-04-14T20:39:28.455Z,11.03
2023-04-14T20:42:03.283Z,11.01
2023-04-14T20:44:34.512Z,10.99
2023-04-14T20:47:17.456Z,10.98
2023-04-14T20:54:28.532Z,10.95
2023-04-14T20:57:03.668Z,10.94
2023-04-14T20:59:44.954Z,10.92
2023-04-14T21:02:37.477Z,10.90
2023-04-14T21:05:17.884Z,10.88
2023-04-14T21:07:51.293Z,10.86
2023-04-14T21:10:22.541Z,10.85
2023-04-14T21:15:28.256Z,10.85
2023-04-14T21:15:54.514Z,10.84
2023-04-14T21:18:27.723Z,10.84
2023-04-14T21:21:00.904Z,10.82
2023-04-14T21:23:32.260Z,10.82
2023-04-14T21:26:03.468Z,10.81
2023-04-14T21:28:35.657Z,10.80
2023-04-14T21:31:07.993Z,10.77
2023-04-14T21:33:39.706Z,10.75
2023-04-14T21:36:13.624Z,10.74
2023-04-14T21:38:45.391Z,10.72
2023-04-14T21:41:16.692Z,10.71
2023-04-14T21:43:48.011Z,10.70
2023-04-14T21:46:27.452Z,10.69
2023-04-14T21:49:02.159Z,10.68
2023-04-14T21:51:45.565Z,10.68
2023-04-14T21:54:22.486Z,10.65
2023-04-14T21:56:53.910Z,10.66
2023-04-14T21:59:25.515Z,10.65
2023-04-14T22:01:57.435Z,10.66
2023-04-14T22:04:36.638Z,10.67
2023-04-14T22:07:08.896Z,10.67
2023-04-14T22:09:41.619Z,10.67
2023-04-14T22:12:30.555Z,10.65
2023-04-14T22:15:06.682Z,10.65
2023-04-14T22:17:39.725Z,10.66
2023-04-14T22:20:15.889Z,10.65
2023-04-14T22:23:13.814Z,10.64
2023-04-14T22:26:03.643Z,10.62
2023-04-14T22:28:35.194Z,10.63
2023-04-14T22:31:23.023Z,10.62
2023-04-14T22:33:54.162Z,10.61
2023-04-14T22:36:25.964Z,10.59
2023-04-14T22:38:57.206Z,10.60
2023-04-14T22:41:28.447Z,10.59
2023-04-14T22:43:59.496Z,10.60
2023-04-14T22:46:31.051Z,10.60
2023-04-14T22:49:02.371Z,10.61
2023-04-14T22:51:33.707Z,10.58
2023-04-14T22:54:04.968Z,10.59
2023-04-14T22:56:37.338Z,10.60
2023-04-14T22:59:09.038Z,10.62
2023-04-14T23:01:40.256Z,10.62
2023-04-14T23:04:11.537Z,10.63
2023-04-14T23:06:43.850Z,10.64
2023-04-14T23:09:15.546Z,10.64
2023-04-14T23:11:46.929Z,10.63
2023-04-14T23:14:18.103Z,10.62
2023-04-14T23:16:49.393Z,10.59
2023-04-14T23:19:20.784Z,10.57
2023-04-14T23:21:52.621Z,10.56
2023-04-14T23:24:23.883Z,10.54
2023-04-14T23:26:55.111Z,10.54
2023-04-14T23:29:26.616Z,10.53
2023-04-14T23:31:57.892Z,10.51
2023-04-14T23:34:29.943Z,10.49
2023-04-14T23:37:01.114Z,10.49
2023-04-14T23:39:32.817Z,10.49
2023-04-14T23:42:04.509Z,10.50
2023-04-14T23:44:35.658Z,10.50
2023-04-14T23:47:08.518Z,10.51
2023-04-14T23:49:39.894Z,10.51
2023-04-14T23:52:11.444Z,10.51
2023-04-14T23:54:42.962Z,10.52
2023-04-14T23:57:14.074Z,10.53
2023-04-14T23:59:45.756Z,10.52
